| time (UTC) | temp C | wind direction | speed KPH | gust KPH | rain 1hr cm | rain 24hr cm | rain mn cm | humidity % | barometer mb |
| 20260906040056 | 25 | 0 | 0.0 | 3.2 | 0.00 | 0.89 | 0.89 | 96 | 1012.8 |
| 20260906034552 | 25 | 0 | 0.0 | 3.2 | 0.00 | 0.89 | 0.89 | 96 | 1013.0 |
| 20260906033101 | 25 | 0 | 0.0 | 3.2 | 0.00 | 0.89 | 0.89 | 95 | 1013.0 |
| 20260906031558 | 26 | 0 | 0.0 | 1.6 | 0.00 | 0.89 | 0.89 | 95 | 1013.0 |
| 20260906030055 | 26 | 0 | 0.0 | 0.0 | 0.00 | 0.89 | 0.89 | 95 | 1013.0 |
| 20260906024548 | 26 | 0 | 0.0 | 1.6 | 0.00 | 0.89 | 0.89 | 95 | 1013.0 |
| 20260906023056 | 26 | 0 | 0.0 | 0.0 | 0.00 | 0.89 | 0.89 | 94 | 1012.8 |
| 20260906021557 | 26 | 0 | 0.0 | 3.2 | 0.00 | 0.89 | 0.89 | 94 | 1012.4 |
| 20260906020054 | 26 | 0 | 0.0 | 4.8 | 0.00 | 0.89 | 0.89 | 94 | 1012.3 |
| 20260906014549 | 26 | 288 | 0.0 | 3.2 | 0.00 | 0.89 | 0.89 | 94 | 1012.1 |
| 20260906013057 | 26 | 318 | 0.0 | 6.4 | 0.00 | 0.89 | 0.89 | 94 | 1012.1 |
| 20260906011604 | 26 | 0 | 0.0 | 4.8 | 0.00 | 0.89 | 0.89 | 93 | 1012.1 |
| 20260906010052 | 26 | 0 | 0.0 | 0.0 | 0.00 | 0.89 | 0.89 | 93 | 1012.2 |
| 20260906004555 | 27 | 0 | 0.0 | 4.8 | 0.00 | 0.89 | 0.89 | 92 | 1012.2 |
| 20260906003053 | 27 | 264 | 0.0 | 3.2 | 0.00 | 0.89 | 0.89 | 90 | 1012.2 |
| 20260906001559 | 27 | 257 | 0.0 | 3.2 | 0.00 | 0.89 | 0.89 | 88 | 1012.2 |
| 20260906000049 | 28 | 0 | 0.0 | 4.8 | 0.00 | 0.89 | 0.89 | 86 | 1012.3 |
| 20260905234556 | 28 | 0 | 1.6 | 6.4 | 0.00 | 0.89 | 0.89 | 86 | 1012.1 |
| 20260905233111 | 28 | 0 | 0.0 | 6.4 | 0.00 | 0.89 | 0.89 | 88 | 1012.4 |
| 20260905231555 | 27 | 228 | 0.0 | 8.0 | 0.00 | 0.89 | 0.89 | 91 | 1012.3 |
| 20260905230057 | 27 | 0 | 0.0 | 4.8 | 0.00 | 0.89 | 0.89 | 92 | 1012.2 |
| 20260905224611 | 28 | 0 | 0.0 | 0.0 | 0.00 | 0.89 | 0.89 | 94 | 1012.2 |
| 20260905223055 | 27 | 0 | 0.0 | 0.0 | 0.03 | 0.89 | 0.89 | 94 | 1012.2 |
| 20260905221548 | 27 | 0 | 0.0 | 3.2 | 0.13 | 0.89 | 0.89 | 94 | 1012.2 |
| 20260905220056 | 27 | 0 | 0.0 | 0.0 | 0.89 | 0.89 | 0.89 | 93 | 1012.2 |
| 20260905214552 | 27 | 0 | 0.0 | 1.6 | 0.89 | 0.89 | 0.89 | 93 | 1012.2 |
| 20260905213102 | 27 | 219 | 0.0 | 9.7 | 0.86 | 0.86 | 0.86 | 91 | 1012.4 |
| 20260905211554 | 28 | 345 | 3.2 | 11.3 | 0.74 | 0.74 | 0.74 | 84 | 1012.9 |
| 20260905210055 | 30 | 205 | 3.2 | 14.5 | 0.00 | 0.00 | 0.00 | 77 | 1012.6 |
| 20260905204552 | 30 | 289 | 1.6 | 11.3 | 0.00 | 0.00 | 0.00 | 78 | 1012.5 |
| 20260905203101 | 31 | 226 | 3.2 | 12.9 | 0.00 | 0.00 | 0.00 | 74 | 1012.6 |
| 20260905201607 | 32 | 263 | 1.6 | 8.0 | 0.00 | 0.00 | 0.00 | 65 | 1012.7 |
| 20260905200054 | 32 | 91 | 3.2 | 9.7 | 0.00 | 0.00 | 0.00 | 67 | 1012.6 |
| 20260905194549 | 31 | 243 | 1.6 | 9.7 | 0.00 | 0.03 | 0.00 | 67 | 1012.7 |
| 20260905193057 | 32 | 100 | 1.6 | 12.9 | 0.00 | 0.03 | 0.00 | 66 | 1013.1 |
| 20260905191557 | 32 | 153 | 4.8 | 12.9 | 0.00 | 0.03 | 0.00 | 67 | 1013.3 |
| 20260905190107 | 32 | 0 | 1.6 | 11.3 | 0.00 | 0.03 | 0.00 | 68 | 1013.4 |
| 20260905184616 | 31 | 35 | 4.8 | 14.5 | 0.00 | 0.13 | 0.00 | 70 | 1013.7 |
| 20260905183058 | 31 | 216 | 3.2 | 12.9 | 0.00 | 0.13 | 0.00 | 72 | 1013.9 |
| 20260905181553 | 31 | 111 | 6.4 | 17.7 | 0.00 | 0.13 | 0.00 | 68 | 1014.2 |
| 20260905180054 | 31 | 54 | 3.2 | 12.9 | 0.00 | 0.13 | 0.00 | 72 | 1014.2 |
| 20260905174555 | 31 | 91 | 4.8 | 17.7 | 0.00 | 0.18 | 0.00 | 74 | 1014.5 |
| 20260905173052 | 30 | 51 | 3.2 | 12.9 | 0.00 | 0.18 | 0.00 | 76 | 1014.7 |
| 20260905171555 | 30 | 0 | 3.2 | 11.3 | 0.00 | 0.18 | 0.00 | 77 | 1014.7 |
| 20260905170057 | 30 | 14 | 4.8 | 12.9 | 0.00 | 0.18 | 0.00 | 77 | 1014.7 |
| 20260905164556 | 29 | 115 | 1.6 | 12.9 | 0.00 | 0.43 | 0.00 | 79 | 1014.9 |
| 20260905163101 | 29 | 65 | 4.8 | 12.9 | 0.00 | 0.43 | 0.00 | 81 | 1014.9 |
| 20260905161555 | 28 | 66 | 6.4 | 14.5 | 0.00 | 0.43 | 0.00 | 82 | 1015.1 |
| 20260905160051 | 29 | 359 | 4.8 | 17.7 | 0.00 | 0.43 | 0.00 | 81 | 1015.0 |
| 20260905154559 | 28 | 90 | 4.8 | 17.7 | 0.00 | 0.48 | 0.00 | 85 | 1015.2 |
| 20260905153057 | 28 | 7 | 3.2 | 11.3 | 0.00 | 0.48 | 0.00 | 85 | 1015.2 |
| 20260905151555 | 28 | 345 | 3.2 | 8.0 | 0.00 | 0.48 | 0.00 | 86 | 1015.3 |
| 20260905150049 | 27 | 0 | 0.0 | 9.7 | 0.00 | 0.48 | 0.00 | 88 | 1015.2 |
| 20260905144547 | 27 | 15 | 3.2 | 9.7 | 0.00 | 0.51 | 0.00 | 88 | 1015.1 |
| 20260905143057 | 26 | 322 | 3.2 | 6.4 | 0.00 | 0.51 | 0.00 | 89 | 1015.2 |
| 20260905141608 | 26 | 60 | 0.0 | 3.2 | 0.00 | 0.51 | 0.00 | 91 | 1015.1 |
| 20260905140055 | 25 | 324 | 1.6 | 6.4 | 0.00 | 0.51 | 0.00 | 93 | 1015.2 |
| 20260905134550 | 26 | 18 | 1.6 | 6.4 | 0.00 | 0.51 | 0.00 | 93 | 1015.1 |
| 20260905133055 | 25 | 332 | 1.6 | 4.8 | 0.00 | 0.51 | 0.00 | 94 | 1015.0 |
| 20260905131608 | 25 | 79 | 0.0 | 4.8 | 0.00 | 0.51 | 0.00 | 95 | 1014.9 |
| 20260905130100 | 24 | 51 | 0.0 | 3.2 | 0.00 | 0.51 | 0.00 | 97 | 1014.7 |
| 20260905124556 | 23 | 0 | 0.0 | 3.2 | 0.00 | 0.51 | 0.00 | 98 | 1014.5 |
| 20260905123102 | 23 | 51 | 0.0 | 3.2 | 0.00 | 0.51 | 0.00 | 98 | 1014.4 |
| 20260905121554 | 23 | 0 | 0.0 | 0.0 | 0.00 | 0.51 | 0.00 | 98 | 1014.3 |
| 20260905120053 | 23 | 0 | 0.0 | 1.6 | 0.00 | 0.51 | 0.00 | 98 | 1014.2 |
| 20260905114550 | 22 | 0 | 0.0 | 1.6 | 0.00 | 0.51 | 0.00 | 98 | 1014.3 |
| 20260905113108 | 22 | 0 | 0.0 | 1.6 | 0.00 | 0.51 | 0.00 | 98 | 1014.1 |
| 20260905111558 | 22 | 0 | 0.0 | 1.6 | 0.00 | 0.51 | 0.00 | 98 | 1013.9 |
| 20260905110052 | 22 | 0 | 0.0 | 1.6 | 0.00 | 0.51 | 0.00 | 97 | 1013.9 |
| 20260905104551 | 23 | 0 | 0.0 | 0.0 | 0.00 | 0.51 | 0.00 | 97 | 1014.0 |
| 20260905103048 | 23 | 0 | 0.0 | 3.2 | 0.00 | 0.51 | 0.00 | 97 | 1014.1 |
| 20260905101619 | 23 | 98 | 1.6 | 4.8 | 0.00 | 0.51 | 0.00 | 97 | 1014.1 |
| 20260905100056 | 23 | 0 | 0.0 | 1.6 | 0.00 | 0.51 | 0.00 | 97 | 1013.9 |
| 20260905094549 | 23 | 0 | 0.0 | 3.2 | 0.00 | 0.51 | 0.00 | 97 | 1013.8 |
| 20260905093048 | 23 | 0 | 0.0 | 0.0 | 0.00 | 0.51 | 0.00 | 97 | 1013.8 |
| 20260905091603 | 23 | 0 | 0.0 | 0.0 | 0.00 | 0.51 | 0.00 | 97 | 1013.7 |
| 20260905090053 | 23 | 0 | 0.0 | 0.0 | 0.00 | 0.51 | 0.00 | 97 | 1013.6 |
| 20260905084606 | 23 | 0 | 0.0 | 3.2 | 0.00 | 0.51 | 0.00 | 97 | 1013.4 |
| 20260905083048 | 23 | 0 | 0.0 | 1.6 | 0.00 | 0.51 | 0.00 | 97 | 1013.6 |
| 20260905081556 | 23 | 0 | 0.0 | 0.0 | 0.00 | 0.51 | 0.00 | 97 | 1013.4 |
| 20260905080055 | 23 | 0 | 0.0 | 1.6 | 0.00 | 0.51 | 0.00 | 97 | 1013.4 |
| 20260905074555 | 23 | 0 | 0.0 | 0.0 | 0.00 | 0.51 | 0.00 | 97 | 1013.4 |
| 20260905073048 | 23 | 0 | 0.0 | 0.0 | 0.00 | 0.51 | 0.00 | 97 | 1013.5 |
| 20260905071558 | 23 | 0 | 0.0 | 1.6 | 0.00 | 0.51 | 0.00 | 97 | 1013.5 |
| 20260905070106 | 23 | 92 | 0.0 | 4.8 | 0.00 | 0.51 | 0.00 | 97 | 1013.6 |
| 20260905064552 | 23 | 0 | 0.0 | 3.2 | 0.00 | 0.51 | 0.00 | 97 | 1013.4 |
| 20260905063051 | 23 | 70 | 0.0 | 1.6 | 0.00 | 0.51 | 0.00 | 97 | 1013.3 |
| 20260905061607 | 23 | 0 | 0.0 | 1.6 | 0.00 | 0.51 | 0.00 | 97 | 1013.4 |
| 20260905060051 | 23 | 0 | 0.0 | 1.6 | 0.00 | 0.51 | 0.00 | 97 | 1013.5 |
| 20260905054552 | 23 | 0 | 0.0 | 0.0 | 0.00 | 0.51 | 0.00 | 97 | 1013.5 |
| 20260905053105 | 23 | 0 | 0.0 | 1.6 | 0.00 | 0.51 | 0.00 | 97 | 1013.6 |
| 20260905051550 | 23 | 0 | 0.0 | 1.6 | 0.00 | 0.51 | 0.00 | 97 | 1013.7 |
| 20260905050047 | 23 | 0 | 0.0 | 1.6 | 0.00 | 0.51 | 0.00 | 97 | 1013.8 |
| 20260905044553 | 23 | 0 | 0.0 | 0.0 | 0.00 | 0.51 | 0.51 | 97 | 1013.8 |
| 20260905043056 | 23 | 0 | 0.0 | 1.6 | 0.00 | 0.51 | 0.51 | 97 | 1013.9 |
| 20260905041551 | 23 | 0 | 0.0 | 1.6 | 0.00 | 0.51 | 0.51 | 97 | 1014.2 |